createdAt,value
2017-04-23T09:32:42.746Z,36.65
2017-04-23T09:33:23.497Z,36.17
2017-04-23T09:34:04.237Z,36.09
2017-04-23T09:34:45.031Z,35.61
2017-04-23T09:35:25.765Z,34.84
2017-04-23T09:36:06.513Z,35.21
2017-04-23T09:36:47.336Z,35.8
2017-04-23T09:37:28.233Z,36
2017-04-23T09:38:08.931Z,35.9
2017-04-23T09:38:49.748Z,35.14
2017-04-23T09:39:30.448Z,35.14
2017-04-23T09:40:11.165Z,34.56
2017-04-23T09:40:51.969Z,34.86
2017-04-23T09:41:32.772Z,35.36
2017-04-23T09:42:13.570Z,35.94
2017-04-23T09:42:54.417Z,35.26
2017-04-23T09:43:35.134Z,35.36
2017-04-23T09:44:15.813Z,35.06
2017-04-23T09:44:56.547Z,35.16
2017-04-23T09:45:37.305Z,35.45
2017-04-23T09:46:18.114Z,35.36
2017-04-23T09:46:58.826Z,35.55
2017-04-23T09:47:39.581Z,34.58
2017-04-23T09:48:20.356Z,35.44
2017-04-23T09:49:01.614Z,36.38
2017-04-23T09:49:42.483Z,37.15
2017-04-23T09:50:23.218Z,37.45
2017-04-23T09:51:04.012Z,37.43
2017-04-23T09:51:44.837Z,37.23
2017-04-23T09:52:25.604Z,37.06
2017-04-23T09:53:06.388Z,37.54
2017-04-23T09:53:47.119Z,38.12
2017-04-23T09:54:27.869Z,38.79
2017-04-23T09:55:08.742Z,38.51
2017-04-23T09:55:49.400Z,38.78
2017-04-23T09:56:30.221Z,39.64
2017-04-23T09:57:11.000Z,39.57
2017-04-23T09:57:51.805Z,38.99
2017-04-23T09:58:32.594Z,38.7
2017-04-23T09:59:13.372Z,39.09
2017-04-23T09:59:54.090Z,38.79
2017-04-23T10:00:34.815Z,38.89
2017-04-23T10:01:15.565Z,38.79
2017-04-23T10:02:03.131Z,39.57
2017-04-23T10:02:43.878Z,39.57
2017-04-23T10:03:24.716Z,39.95
2017-04-23T10:04:05.562Z,39.66
2017-04-23T10:04:46.347Z,40.63
2017-04-23T10:05:27.165Z,40.07
2017-04-23T10:06:08.049Z,39.69
2017-04-23T10:06:48.807Z,39.59
2017-04-23T10:07:29.522Z,38.93
2017-04-23T10:08:10.231Z,39.39
2017-04-23T10:08:51.029Z,38.81
2017-04-23T10:09:31.723Z,38.89
2017-04-23T10:10:12.516Z,39.54
2017-04-23T10:10:53.213Z,40.05
2017-04-23T10:11:34.615Z,40.05
2017-04-23T10:12:14.742Z,40.12
2017-04-23T10:12:55.578Z,41.34
2017-04-23T10:13:36.351Z,41.72
2017-04-23T10:14:17.113Z,41.84
2017-04-23T10:14:57.854Z,41.48
2017-04-23T10:15:38.599Z,40.24
2017-04-23T10:16:19.396Z,40.42
2017-04-23T10:17:00.129Z,40.42
2017-04-23T10:17:40.843Z,40.61
2017-04-23T10:18:21.625Z,40.63
2017-04-23T10:19:02.320Z,40.44
2017-04-23T10:19:43.073Z,40.15
2017-04-23T10:20:23.944Z,40.05
2017-04-23T10:21:04.743Z,40.36
2017-04-23T10:21:45.541Z,40.45
2017-04-23T10:22:26.267Z,39.97
2017-04-23T10:23:07.037Z,40.07
2017-04-23T10:23:47.883Z,40.17
2017-04-23T10:24:28.693Z,40.63
2017-04-23T10:25:09.438Z,41.69
2017-04-23T10:25:50.212Z,41.6
2017-04-23T10:26:31.043Z,41.77
2017-04-23T10:27:11.818Z,41.86
2017-04-23T10:27:52.486Z,42.05
2017-04-23T10:28:33.250Z,41.38
2017-04-23T10:29:14.083Z,41.48
2017-04-23T10:29:54.792Z,41.84
2017-04-23T10:30:35.633Z,42.03
2017-04-23T10:31:16.339Z,41.86
2017-04-23T10:31:57.153Z,41.48
2017-04-23T10:32:37.946Z,41.67
2017-04-23T10:33:18.689Z,41.69
2017-04-23T10:33:59.397Z,41.3
2017-04-23T10:34:40.282Z,41.5
2017-04-23T10:35:21.021Z,41.3
2017-04-23T10:36:01.826Z,41.11
2017-04-23T10:36:42.621Z,40.82
2017-04-23T10:37:23.282Z,41.5
2017-04-23T10:38:04.037Z,40.92
2017-04-23T10:38:44.811Z,40.75
2017-04-23T10:39:25.590Z,40.45
2017-04-23T10:40:06.387Z,40.45
2017-04-23T10:40:47.155Z,40.36
2017-04-23T10:41:27.984Z,40.17
2017-04-23T10:42:08.734Z,40.92
2017-04-23T10:42:49.460Z,41.02
2017-04-23T10:43:30.196Z,41.67
2017-04-23T10:44:10.870Z,41.48
2017-04-23T10:44:51.615Z,41.4
2017-04-23T10:45:32.356Z,40.92
2017-04-23T10:46:13.118Z,39.95
2017-04-23T10:46:53.873Z,39.94
2017-04-23T10:47:34.586Z,40.9
2017-04-23T10:48:15.372Z,40.51
2017-04-23T10:48:56.158Z,40.3
2017-04-23T10:49:36.936Z,40.49
2017-04-23T10:50:17.650Z,40.97
2017-04-23T10:50:58.387Z,41.46
2017-04-23T10:51:39.168Z,41.84
2017-04-23T10:52:19.948Z,41.94
2017-04-23T10:53:00.793Z,42.23
2017-04-23T10:53:41.593Z,41.94
2017-04-23T10:54:22.337Z,41.27
2017-04-23T10:55:03.068Z,41.36
2017-04-23T10:55:43.794Z,41.34
2017-04-23T10:56:24.566Z,41.53
2017-04-23T10:57:05.431Z,41.92
2017-04-23T10:57:46.143Z,41.82
2017-04-23T10:58:26.929Z,42.02
2017-04-23T10:59:07.667Z,41.72
2017-04-23T10:59:48.427Z,42.02
2017-04-23T11:00:29.183Z,42.4
2017-04-23T11:01:09.933Z,42.69
2017-04-23T11:03:25.409Z,41.65
2017-04-23T11:04:06.308Z,41.48
2017-04-23T11:04:47.010Z,41.38
2017-04-23T11:05:27.755Z,40.8
2017-04-23T11:06:08.534Z,40.03
2017-04-23T11:06:49.334Z,39.84
2017-04-23T11:07:30.030Z,39.94
2017-04-23T11:08:10.777Z,39.54
2017-04-23T11:08:51.477Z,40.61
2017-04-23T11:09:32.264Z,40.15
2017-04-23T11:10:13.003Z,39.66
2017-04-23T11:10:53.798Z,39.09
2017-04-23T11:11:34.507Z,39.37
2017-04-23T11:12:15.244Z,39.66
2017-04-23T11:12:56.064Z,39.28
2017-04-23T11:13:36.808Z,39.57
2017-04-23T11:14:17.664Z,39.87
2017-04-23T11:14:58.366Z,39.01
2017-04-23T11:15:39.048Z,38.53
2017-04-23T11:16:19.791Z,39.2
2017-04-23T11:17:00.547Z,38.71
2017-04-23T11:17:41.276Z,38.89
2017-04-23T11:18:21.995Z,38.79
2017-04-23T11:19:02.724Z,39.66
2017-04-23T11:19:43.520Z,39.76
2017-04-23T11:20:24.269Z,39.18
2017-04-23T11:21:05.079Z,39.18
2017-04-23T11:21:45.820Z,39.95
2017-04-23T11:22:26.597Z,39.66
2017-04-23T11:23:07.425Z,39.76
2017-04-23T11:23:48.173Z,39.57
2017-04-23T11:24:28.896Z,39.86
2017-04-23T11:25:09.659Z,39.18
2017-04-23T11:25:50.404Z,38.78
2017-04-23T11:26:31.121Z,39.64
2017-04-23T11:27:11.918Z,40.22
2017-04-23T11:27:52.617Z,40.22
2017-04-23T11:28:33.435Z,40.01
2017-04-23T11:29:14.320Z,40.2
2017-04-23T11:29:55.083Z,39.79
2017-04-23T11:30:35.804Z,40.3
2017-04-23T11:31:16.516Z,40.22
2017-04-23T11:31:57.191Z,39.94
2017-04-23T11:32:37.975Z,39.74
2017-04-23T11:33:18.717Z,40.03
2017-04-23T11:33:59.415Z,39.45
2017-04-23T11:34:40.248Z,39.76
2017-04-23T11:35:20.978Z,39.54
2017-04-23T11:36:01.744Z,40.15
2017-04-23T11:36:42.428Z,39.66
2017-04-23T11:37:23.152Z,39.84
2017-04-23T11:38:03.863Z,39.45
2017-04-23T11:38:44.705Z,39.26
2017-04-23T11:39:25.442Z,39.24
2017-04-23T11:40:06.167Z,39.34
2017-04-23T11:40:46.947Z,39.84
2017-04-23T11:41:27.703Z,38.76
2017-04-23T11:42:08.462Z,38.66
2017-04-23T11:42:49.221Z,39.04
2017-04-23T11:43:30.003Z,39.16
2017-04-23T11:44:10.770Z,38.78
2017-04-23T11:44:51.551Z,38.78
2017-04-23T11:45:32.333Z,38.58
2017-04-23T11:46:13.109Z,38.78
2017-04-23T11:46:53.866Z,38.76
2017-04-23T11:47:34.633Z,39.79
2017-04-23T11:48:15.373Z,40.19
2017-04-23T11:48:56.252Z,40.66
2017-04-23T11:49:36.875Z,40.66
2017-04-23T11:50:17.650Z,41.24
2017-04-23T11:50:58.375Z,41.36
2017-04-23T11:51:39.119Z,41.46
2017-04-23T11:52:19.856Z,40.88
2017-04-23T11:53:00.572Z,40.22
2017-04-23T11:53:41.286Z,39.94
2017-04-23T11:54:22.123Z,39.94
2017-04-23T11:55:02.958Z,40.2
2017-04-23T11:55:43.736Z,40.37
2017-04-23T11:56:24.459Z,40.57
2017-04-23T11:57:05.240Z,40.59
2017-04-23T11:57:46.041Z,40.59
2017-04-23T11:58:26.808Z,40.39
2017-04-23T11:59:07.579Z,39.91
2017-04-23T11:59:48.390Z,39.72
2017-04-23T12:00:29.106Z,40.39
2017-04-23T12:01:09.973Z,40.01
2017-04-23T12:01:50.709Z,39.82
2017-04-23T12:02:31.496Z,39.84
2017-04-23T12:03:12.269Z,39.84
2017-04-23T12:03:53.057Z,39.62
2017-04-23T12:04:33.754Z,40.57
2017-04-23T12:05:14.512Z,41.44
2017-04-23T12:05:55.244Z,41.63
2017-04-23T12:06:36.006Z,41.89
2017-04-23T12:07:16.903Z,41.8
2017-04-23T12:07:57.672Z,41.99
2017-04-23T12:08:38.355Z,41.8
2017-04-23T12:09:19.072Z,42.19
2017-04-23T12:09:59.903Z,41.99
2017-04-23T12:10:40.682Z,41.92
2017-04-23T12:11:21.481Z,42.02
2017-04-23T12:12:02.247Z,41.92
2017-04-23T12:12:42.985Z,41.63
2017-04-23T12:13:23.704Z,41.44
2017-04-23T12:14:04.419Z,41.44
2017-04-23T12:14:45.223Z,40.95
2017-04-23T12:15:26.000Z,40.66
2017-04-23T12:16:06.873Z,40.28
2017-04-23T12:16:47.719Z,40.19
2017-04-23T12:17:28.516Z,39.49
2017-04-23T12:18:09.228Z,39.39
2017-04-23T12:18:50.053Z,40.26
2017-04-23T12:19:30.793Z,40.36
2017-04-23T12:20:11.563Z,40.37
2017-04-23T12:20:52.356Z,39.89
2017-04-23T12:21:33.101Z,39.61
2017-04-23T12:22:13.873Z,39.31
2017-04-23T12:22:54.632Z,39.72
2017-04-23T12:23:35.375Z,39.72
2017-04-23T12:24:16.069Z,38.85
2017-04-23T12:24:56.838Z,38.95
2017-04-23T12:25:37.742Z,39.72
2017-04-23T12:26:18.457Z,39.53
2017-04-23T12:26:59.193Z,39.79
2017-04-23T12:27:39.995Z,40.09
2017-04-23T12:28:20.699Z,40.47
2017-04-23T12:29:01.414Z,40.37
2017-04-23T12:29:42.139Z,40.57
2017-04-23T12:30:22.925Z,40.64
2017-04-23T12:31:03.733Z,41.22
2017-04-23T12:31:44.504Z,41.44
2017-04-23T12:32:25.303Z,40.86
2017-04-23T12:33:06.116Z,40.37
2017-04-23T12:33:46.921Z,40.37
2017-04-23T12:34:27.605Z,40.37
2017-04-23T12:35:08.366Z,40.28
2017-04-23T12:35:49.148Z,40.19
2017-04-23T12:36:29.919Z,40.09
2017-04-23T12:37:10.710Z,39.89
2017-04-23T12:37:51.411Z,40.28
2017-04-23T12:38:32.184Z,40.47
2017-04-23T12:39:12.931Z,40.49
2017-04-23T12:39:53.717Z,40.57
2017-04-23T12:40:34.560Z,40.57
2017-04-23T12:41:15.314Z,40.49
2017-04-23T12:41:56.091Z,40.59
2017-04-23T12:42:36.856Z,40.39
2017-04-23T12:43:17.606Z,40.69
2017-04-23T12:43:58.359Z,40.59
2017-04-23T12:44:39.103Z,40.78
2017-04-23T12:45:19.832Z,40.69
2017-04-23T12:46:00.602Z,40.88
2017-04-23T12:46:41.287Z,40.59
2017-04-23T12:47:22.100Z,40.49
2017-04-23T12:48:02.886Z,40.59
2017-04-23T12:48:43.629Z,40.59
2017-04-23T12:49:24.417Z,40.3
2017-04-23T12:50:05.271Z,40.3
2017-04-23T12:50:46.025Z,40.3
2017-04-23T12:51:26.694Z,40.49
2017-04-23T12:52:07.446Z,40.01
2017-04-23T12:52:48.157Z,40.78
2017-04-23T12:53:28.947Z,40.2
2017-04-23T12:54:09.792Z,39.43
2017-04-23T12:54:50.552Z,39.53
2017-04-23T12:55:31.422Z,39.79
2017-04-23T12:56:12.182Z,40.47
2017-04-23T12:56:52.932Z,41.61
2017-04-23T12:57:33.703Z,42.16
2017-04-23T12:58:14.448Z,42.16
2017-04-23T12:58:55.232Z,41.89
2017-04-23T12:59:36.017Z,41.89
2017-04-23T13:00:16.828Z,41.61
2017-04-23T13:00:57.588Z,41.99
2017-04-23T13:01:38.371Z,41.8
2017-04-23T13:02:19.056Z,41.89
2017-04-23T13:02:59.774Z,41.8
2017-04-23T13:03:40.615Z,41.89
2017-04-23T13:04:21.353Z,41.99
2017-04-23T13:05:02.128Z,41.99
2017-04-23T13:05:42.861Z,41.99
2017-04-23T13:06:23.609Z,41.63
2017-04-23T13:07:04.370Z,41.14
2017-04-23T13:07:45.143Z,40.94
2017-04-23T13:08:25.941Z,41.34
2017-04-23T13:09:06.697Z,41.24
2017-04-23T13:09:47.571Z,41.24
2017-04-23T13:10:28.356Z,41.34
2017-04-23T13:11:09.190Z,40.86
2017-04-23T13:11:49.961Z,41.41
2017-04-23T13:12:30.752Z,41.32
2017-04-23T13:13:11.549Z,41.32
2017-04-23T13:13:52.298Z,41.51
2017-04-23T13:14:33.040Z,41.39
2017-04-23T13:15:13.777Z,41.51
2017-04-23T13:15:54.541Z,41.22
2017-04-23T13:16:35.345Z,40.84
2017-04-23T13:17:16.218Z,40.45
2017-04-23T13:17:56.987Z,40.84
2017-04-23T13:18:37.723Z,41.51
2017-04-23T13:19:18.449Z,41.03
2017-04-23T13:19:59.263Z,40.84
2017-04-23T13:20:40.028Z,40.55
2017-04-23T13:21:20.800Z,40.64
2017-04-23T13:22:01.527Z,40.57
2017-04-23T13:22:42.308Z,41.44
2017-04-23T13:23:23.054Z,40.74
2017-04-23T13:24:03.805Z,41.39
2017-04-23T13:24:44.511Z,41.89
2017-04-23T13:25:25.244Z,42.07
2017-04-23T13:26:06.027Z,41.61
2017-04-23T13:26:46.773Z,42.16
2017-04-23T13:27:27.628Z,42.09
2017-04-23T13:28:08.412Z,42.74
2017-04-23T13:28:49.210Z,43.13
2017-04-23T13:29:30.006Z,43.03
2017-04-23T13:30:10.729Z,42.46
2017-04-23T13:30:51.491Z,42.76
2017-04-23T13:31:32.284Z,42.19
2017-04-23T13:32:12.986Z,42.19
2017-04-23T13:32:53.751Z,41.99
2017-04-23T13:33:34.454Z,42.38
2017-04-23T13:34:15.184Z,42.4
2017-04-23T13:34:55.888Z,41.92
2017-04-23T13:35:36.606Z,41.92
2017-04-23T13:36:17.366Z,41.72
2017-04-23T13:36:58.157Z,41.82
2017-04-23T13:37:38.852Z,41.44
2017-04-23T13:38:19.580Z,41.44
2017-04-23T13:39:00.346Z,41.44
2017-04-23T13:39:41.093Z,41.63
2017-04-23T13:40:21.881Z,41.63
2017-04-23T13:41:02.623Z,41.63
2017-04-23T13:41:43.369Z,41.63
2017-04-23T13:42:24.123Z,41.63
2017-04-23T13:43:04.933Z,41.55
2017-04-23T13:43:45.746Z,41.75
2017-04-23T13:44:26.583Z,41.17
2017-04-23T13:45:07.367Z,41.65
2017-04-23T13:45:48.126Z,41.36
2017-04-23T13:46:29.011Z,41.46
2017-04-23T13:47:09.689Z,41.65
2017-04-23T13:47:50.483Z,41.65
2017-04-23T13:48:31.271Z,41.55
2017-04-23T13:49:11.967Z,41.55
2017-04-23T13:49:52.741Z,41.65
2017-04-23T13:50:33.504Z,41.55
2017-04-23T13:51:14.287Z,41.65
2017-04-23T13:51:55.030Z,41.84
2017-04-23T13:52:35.795Z,41.65
2017-04-23T13:53:16.521Z,41.94
2017-04-23T13:53:57.310Z,41.84
2017-04-23T13:54:38.016Z,41.84
2017-04-23T13:55:18.794Z,41.75
2017-04-23T13:55:59.507Z,41.94
2017-04-23T13:56:40.292Z,42.03
2017-04-23T13:57:21.057Z,41.94
2017-04-23T13:58:01.809Z,42.03
2017-04-23T13:58:42.589Z,41.84
2017-04-23T13:59:23.382Z,42.03
2017-04-23T14:00:04.131Z,41.75
2017-04-23T14:00:44.877Z,42.13
2017-04-23T14:01:25.699Z,42.23
2017-04-23T14:02:06.501Z,42.32
2017-04-23T14:02:47.258Z,42.13
2017-04-23T14:03:28.037Z,42.32
2017-04-23T14:04:08.817Z,42.23
2017-04-23T14:04:49.571Z,42.32
2017-04-23T14:05:30.272Z,42.52
2017-04-23T14:06:11.014Z,42.42
2017-04-23T14:06:51.747Z,42.52
2017-04-23T14:07:32.515Z,42.42
2017-04-23T14:08:13.341Z,42.32
2017-04-23T14:08:54.055Z,42.42
2017-04-23T14:09:34.813Z,42.23
2017-04-23T14:10:15.516Z,42.71
2017-04-23T14:10:56.398Z,42.71
2017-04-23T14:11:37.171Z,42.52
2017-04-23T14:12:17.901Z,42.71
2017-04-23T14:12:58.668Z,42.52
2017-04-23T14:13:39.406Z,42.52
2017-04-23T14:14:20.178Z,42.8
2017-04-23T14:15:00.928Z,42.61
2017-04-23T14:15:41.671Z,42.8
2017-04-23T14:16:22.462Z,42.61
2017-04-23T14:17:03.222Z,42.61
2017-04-23T14:17:43.971Z,42.61
2017-04-23T14:18:24.679Z,42.83
2017-04-23T14:19:05.459Z,42.52
2017-04-23T14:19:46.219Z,42.63
2017-04-23T14:20:26.989Z,42.54
2017-04-23T14:21:07.697Z,42.71
2017-04-23T14:21:48.528Z,42.73
2017-04-23T14:22:29.255Z,42.8
2017-04-23T14:23:09.991Z,42.35
2017-04-23T14:23:50.794Z,42.54
2017-04-23T14:24:31.551Z,42.93
2017-04-23T14:25:12.238Z,42.44
2017-04-23T14:25:52.990Z,42.93
2017-04-23T14:26:33.811Z,42.35
2017-04-23T14:27:14.509Z,42.35
2017-04-23T14:27:55.329Z,42.63
2017-04-23T14:28:36.040Z,42.44
2017-04-23T14:29:16.778Z,42.35
2017-04-23T14:29:57.564Z,42.9
2017-04-23T14:30:38.270Z,42.73
2017-04-23T14:31:18.970Z,42.71
2017-04-23T14:31:59.703Z,42.83
2017-04-23T14:32:40.539Z,42.73
2017-04-23T14:33:21.294Z,42.83
2017-04-23T14:34:02.196Z,42.9
2017-04-23T14:34:42.940Z,42.8
2017-04-23T14:35:23.632Z,42.8
2017-04-23T14:36:04.366Z,42.9
2017-04-23T14:36:45.121Z,42.73
2017-04-23T14:37:25.843Z,42.93
2017-04-23T14:38:06.605Z,43.12
2017-04-23T14:38:47.358Z,43.12
2017-04-23T14:39:28.091Z,42.83
2017-04-23T14:40:08.864Z,43.02
2017-04-23T14:40:49.621Z,43.21
2017-04-23T14:41:30.346Z,43.12
2017-04-23T14:42:11.119Z,43.31
2017-04-23T14:42:51.869Z,43.21
2017-04-23T14:43:32.511Z,43.02
2017-04-23T14:44:13.333Z,43.19
2017-04-23T14:44:54.087Z,43.12
2017-04-23T14:45:34.806Z,43.31
2017-04-23T14:46:15.544Z,43.21
2017-04-23T14:46:56.270Z,43.31
2017-04-23T14:47:37.124Z,43.12
2017-04-23T14:48:17.915Z,43.21
2017-04-23T14:48:58.646Z,43.31
2017-04-23T14:49:39.455Z,43.41
2017-04-23T14:50:20.162Z,43.41
2017-04-23T14:51:00.937Z,43.6
2017-04-23T14:51:41.746Z,43.5
2017-04-23T14:52:22.533Z,43.5
2017-04-23T14:53:03.201Z,43.5
2017-04-23T14:53:43.901Z,43.41
2017-04-23T14:54:24.753Z,43.31
2017-04-23T14:55:05.568Z,43.21
2017-04-23T14:55:46.262Z,43.21
2017-04-23T14:56:27.053Z,43.21
2017-04-23T14:57:07.762Z,43.41
2017-04-23T14:57:48.514Z,43.21
2017-04-23T14:58:29.275Z,43.5
2017-04-23T14:59:09.993Z,43.5
2017-04-23T14:59:50.754Z,43.5
2017-04-23T15:00:31.511Z,43.5
2017-04-23T15:01:12.203Z,43.6
2017-04-23T15:01:53.068Z,43.89
2017-04-23T15:02:33.835Z,43.98
2017-04-23T15:03:14.654Z,43.89
2017-04-23T15:03:55.411Z,43.79
2017-04-23T15:04:36.184Z,43.87
2017-04-23T15:05:16.912Z,43.89
2017-04-23T15:05:57.687Z,43.98
2017-04-23T15:06:38.426Z,44.08
2017-04-23T15:07:19.184Z,44.27
2017-04-23T15:07:59.911Z,44.27
2017-04-23T15:08:40.689Z,44.56
2017-04-23T15:09:21.489Z,44.37
2017-04-23T15:10:02.246Z,44.45
2017-04-23T15:10:42.993Z,44.35
2017-04-23T15:11:23.714Z,44.45
2017-04-23T15:12:04.465Z,44.35
2017-04-23T15:12:45.196Z,44.54
2017-04-23T15:13:26.018Z,44.35
2017-04-23T15:14:06.766Z,44.54
2017-04-23T15:14:47.543Z,44.54
2017-04-23T15:15:28.351Z,45.31
2017-04-23T15:16:09.132Z,45.03
2017-04-23T15:16:49.899Z,45.12
2017-04-23T15:17:30.677Z,45.03
2017-04-23T15:18:11.520Z,44.73
2017-04-23T15:18:52.302Z,45.21
2017-04-23T15:19:33.059Z,45.03
2017-04-23T15:20:13.866Z,44.64
2017-04-23T15:20:54.587Z,44.73
2017-04-23T15:21:35.364Z,45.03
2017-04-23T15:22:16.131Z,44.54
2017-04-23T15:22:56.786Z,44.54
2017-04-23T15:23:37.601Z,44.35
2017-04-23T15:24:18.408Z,44.25
2017-04-23T15:24:59.140Z,44.25
2017-04-23T15:25:39.801Z,44.73
2017-04-23T15:26:20.687Z,45.41
2017-04-23T15:27:01.444Z,45.41
2017-04-23T15:27:42.193Z,45.51
2017-04-23T15:28:22.982Z,45.21
2017-04-23T15:29:03.710Z,45.21
2017-04-23T15:29:44.472Z,44.83
2017-04-23T15:30:25.225Z,44.83
2017-04-23T15:31:06.002Z,45.31
2017-04-23T15:31:46.926Z,45.03
2017-04-23T15:32:36.292Z,45.12
2017-04-23T15:33:17.415Z,45.21
2017-04-23T15:34:00.526Z,45.41
2017-04-23T15:34:41.326Z,45.03
2017-04-23T15:35:22.070Z,45.12
2017-04-23T15:36:03.050Z,45.21
2017-04-23T15:36:43.753Z,45.12
2017-04-23T15:37:24.535Z,45.12
2017-04-23T15:38:05.240Z,45.03
2017-04-23T15:38:45.981Z,45.41
2017-04-23T15:39:26.761Z,45.03
2017-04-23T15:40:09.096Z,45.03
2017-04-23T15:40:50.584Z,45.51
2017-04-23T15:41:31.343Z,45.41
2017-04-23T15:42:12.100Z,45.51
2017-04-23T15:42:52.911Z,45.51
2017-04-23T15:43:33.607Z,45.41
2017-04-23T15:44:14.445Z,45.21
2017-04-23T15:44:55.202Z,45.12
2017-04-23T15:45:35.971Z,45.03
2017-04-23T15:46:16.734Z,45.03
2017-04-23T15:46:57.464Z,45.12
2017-04-23T15:47:38.222Z,45.31
2017-04-23T15:48:19.067Z,45.21
2017-04-23T15:48:59.809Z,45.03
2017-04-23T15:49:40.584Z,45.41
2017-04-23T15:50:21.319Z,45.41
2017-04-23T15:51:02.162Z,44.93
2017-04-23T15:51:42.934Z,45.12
2017-04-23T15:52:23.686Z,45.03
2017-04-23T15:53:04.460Z,45.41
2017-04-23T15:53:45.206Z,45.31
2017-04-23T15:54:25.952Z,45.41
2017-04-23T15:55:06.663Z,45.31
2017-04-23T15:55:47.452Z,45.12
2017-04-23T15:56:28.216Z,45.03
2017-04-23T15:57:08.935Z,45.41
2017-04-23T15:57:49.713Z,45.21
2017-04-23T15:58:30.470Z,45.21
2017-04-23T15:59:11.269Z,45.41
2017-04-23T15:59:52.040Z,45.21
2017-04-23T16:00:32.806Z,45.21
2017-04-23T16:01:13.519Z,45.51
2017-04-23T16:01:54.283Z,45.21
2017-04-23T16:04:14.895Z,45.6
2017-04-23T16:04:55.705Z,45.89
2017-04-23T16:05:36.492Z,45.51
2017-04-23T16:06:17.238Z,45.51
2017-04-23T16:06:57.996Z,45.31
2017-04-23T16:07:38.713Z,45.7
2017-04-23T16:08:19.378Z,45.7
2017-04-23T16:09:00.207Z,45.7
2017-04-23T16:09:40.982Z,45.6
2017-04-23T16:10:21.769Z,45.51
2017-04-23T16:11:02.533Z,45.31
2017-04-23T16:11:43.325Z,45.6
2017-04-23T16:12:24.107Z,45.6
2017-04-23T16:13:04.836Z,45.79
2017-04-23T16:13:45.515Z,45.6
2017-04-23T16:14:26.297Z,45.79
2017-04-23T16:15:07.064Z,46.28
2017-04-23T16:15:47.844Z,45.79
2017-04-23T16:16:28.622Z,45.6
2017-04-23T16:17:09.310Z,46.56
2017-04-23T16:17:50.087Z,46.18
2017-04-23T16:18:30.767Z,46.08
2017-04-23T16:19:11.469Z,45.99
2017-04-23T16:19:52.220Z,45.99
2017-04-23T16:20:32.999Z,46.18
2017-04-23T16:21:13.776Z,46.28
2017-04-23T16:21:54.510Z,46.28
2017-04-23T16:22:35.252Z,46.28
2017-04-23T16:23:15.985Z,46.18
2017-04-23T16:23:56.743Z,45.99
2017-04-23T16:24:37.540Z,45.99
2017-04-23T16:25:18.267Z,46.28
2017-04-23T16:25:59.044Z,46.28
2017-04-23T16:26:39.804Z,46.28
2017-04-23T16:27:20.649Z,46.08
2017-04-23T16:28:01.392Z,45.99
2017-04-23T16:28:42.180Z,46.08
2017-04-23T16:29:23.007Z,46.18
2017-04-23T16:30:03.698Z,46.08
2017-04-23T16:30:44.495Z,45.99
2017-04-23T16:31:25.205Z,46.06
2017-04-23T16:32:06.044Z,46.08
2017-04-23T16:32:46.840Z,46.08
2017-04-23T16:33:30.264Z,46.06
2017-04-23T16:34:11.073Z,46.06
2017-04-23T16:34:51.788Z,45.99
2017-04-23T16:35:32.660Z,46.08
2017-04-23T16:36:13.428Z,46.28
2017-04-23T16:36:54.215Z,46.08
2017-04-23T16:37:34.906Z,45.87
2017-04-23T16:38:15.721Z,45.99
2017-04-23T16:38:56.466Z,46.08
2017-04-23T16:39:37.291Z,45.97
2017-04-23T16:40:18.027Z,46.18
2017-04-23T16:40:58.786Z,46.15
2017-04-23T16:41:39.630Z,46.18
2017-04-23T16:42:20.379Z,46.06
2017-04-23T16:43:01.858Z,46.06
2017-04-23T16:43:42.003Z,46.08
2017-04-23T16:44:22.795Z,45.97
2017-04-23T16:45:03.557Z,46.15
2017-04-23T16:45:44.305Z,46.15
2017-04-23T16:46:25.082Z,45.87
2017-04-23T16:47:05.805Z,46.06
2017-04-23T16:47:46.533Z,45.97
2017-04-23T16:48:27.341Z,46.15
2017-04-23T16:49:08.126Z,46.06
2017-04-23T16:49:48.887Z,45.87
2017-04-23T16:50:29.655Z,45.97
2017-04-23T16:51:10.386Z,46.25
2017-04-23T16:51:51.263Z,46.15
2017-04-23T16:52:32.017Z,46.25
2017-04-23T16:53:12.695Z,45.68
2017-04-23T16:53:53.542Z,45.68
2017-04-23T16:54:34.292Z,45.68
2017-04-23T16:55:15.114Z,45.87
2017-04-23T16:55:55.818Z,46.47
2017-04-23T16:56:36.647Z,45.87
2017-04-23T16:57:17.423Z,45.77
2017-04-23T16:57:58.123Z,46.35
2017-04-23T16:58:38.828Z,46.25
2017-04-23T16:59:19.695Z,46.45
2017-04-23T17:00:00.501Z,46.45
2017-04-23T17:00:41.264Z,46.35
2017-04-23T17:01:21.959Z,46.45
2017-04-23T17:02:02.707Z,46.45
2017-04-23T17:02:43.439Z,46.45
2017-04-23T17:03:24.752Z,46.45
2017-04-23T17:04:05.525Z,46.45
2017-04-23T17:04:46.268Z,46.45
2017-04-23T17:05:27.029Z,46.35
2017-04-23T17:06:07.800Z,46.35
2017-04-23T17:06:48.582Z,46.45
2017-04-23T17:07:29.424Z,46.35
2017-04-23T17:08:10.255Z,46.35
2017-04-23T17:08:51.057Z,46.55
2017-04-23T17:09:31.863Z,46.73
2017-04-23T17:10:12.563Z,46.45
2017-04-23T17:10:53.287Z,46.64
2017-04-23T17:11:34.084Z,46.35
2017-04-23T17:12:14.832Z,46.45
2017-04-23T17:12:55.576Z,46.73
2017-04-23T17:13:36.346Z,46.55
2017-04-23T17:14:17.212Z,46.83
2017-04-23T17:14:58.001Z,46.64
2017-04-23T17:15:38.762Z,46.64
2017-04-23T17:16:19.462Z,46.64
2017-04-23T17:17:00.218Z,46.55
2017-04-23T17:17:40.933Z,46.35
2017-04-23T17:18:21.660Z,46.45
2017-04-23T17:19:02.416Z,46.83
2017-04-23T17:19:43.147Z,46.64
2017-04-23T17:20:23.956Z,47.12
2017-04-23T17:21:04.631Z,46.93
2017-04-23T17:21:45.482Z,46.93
2017-04-23T17:22:26.215Z,46.83
2017-04-23T17:23:06.958Z,46.83
2017-04-23T17:23:47.775Z,47.22
2017-04-23T17:24:28.521Z,46.83
2017-04-23T17:25:09.258Z,47.41
2017-04-23T17:25:50.030Z,47.31
2017-04-23T17:26:30.765Z,47.51
2017-04-23T17:27:11.599Z,47.6
2017-04-23T17:27:52.413Z,47.41
2017-04-23T17:28:33.124Z,47.22
2017-04-23T17:29:13.941Z,47.31
2017-04-23T17:29:54.705Z,47.51
2017-04-23T17:30:35.485Z,47.41
2017-04-23T17:31:16.216Z,47.22
2017-04-23T17:31:57.068Z,47.31
2017-04-23T17:32:37.800Z,47.22
2017-04-23T17:34:53.378Z,47.41
2017-04-23T17:35:34.095Z,47.6
2017-04-23T17:36:14.861Z,47.7
2017-04-23T17:36:55.628Z,47.7
2017-04-23T17:37:36.403Z,47.6
2017-04-23T17:38:17.142Z,47.6
2017-04-23T17:38:57.950Z,47.89
2017-04-23T17:39:38.711Z,48.18
2017-04-23T17:40:19.512Z,47.89
2017-04-23T17:41:00.216Z,47.99
2017-04-23T17:41:40.896Z,47.99
2017-04-23T17:42:21.673Z,47.7
2017-04-23T17:43:02.410Z,47.6
2017-04-23T17:43:43.172Z,48.08
2017-04-23T17:44:23.924Z,47.89
2017-04-23T17:45:04.644Z,47.99
2017-04-23T17:45:45.420Z,47.89
2017-04-23T17:46:26.249Z,47.89
2017-04-23T17:47:07.022Z,48.18
2017-04-23T17:47:47.827Z,48.28
2017-04-23T17:48:28.610Z,48.47
2017-04-23T17:49:09.336Z,48.28
2017-04-23T17:49:50.119Z,47.99
2017-04-23T17:50:30.912Z,48.08
2017-04-23T17:51:11.740Z,48.08
2017-04-23T17:51:52.581Z,48.38
2017-04-23T17:52:33.358Z,48.18
2017-04-23T17:53:14.081Z,48.28
2017-04-23T17:53:54.832Z,48.28
2017-04-23T17:54:35.697Z,48.28
2017-04-23T17:55:16.426Z,48.66
2017-04-23T17:55:57.251Z,48.18
2017-04-23T17:56:37.961Z,48.08
2017-04-23T17:57:18.750Z,48.38
2017-04-23T17:57:59.501Z,48.18
2017-04-23T17:58:40.259Z,48.18
2017-04-23T17:59:21.157Z,48.38
2017-04-23T18:00:01.845Z,48.18
2017-04-23T18:00:42.563Z,48.18
2017-04-23T18:01:23.356Z,48.38
2017-04-23T18:02:04.174Z,48.18
2017-04-23T18:02:45.007Z,48.18
2017-04-23T18:03:25.740Z,48.08
2017-04-23T18:04:06.604Z,48.18
2017-04-23T18:04:47.331Z,48.28
2017-04-23T18:05:28.108Z,48.08
2017-04-23T18:06:08.824Z,47.99
2017-04-23T18:06:49.563Z,48.57
2017-04-23T18:07:30.390Z,48.08
2017-04-23T18:08:11.219Z,48.57
2017-04-23T18:08:52.023Z,48.57
2017-04-23T18:09:32.779Z,48.76
2017-04-23T18:10:13.520Z,48.18
2017-04-23T18:10:54.306Z,48.66
2017-04-23T18:11:35.124Z,49.05
2017-04-23T18:12:15.806Z,48.47
2017-04-23T18:12:56.618Z,48.76
2017-04-23T18:13:37.351Z,48.57
2017-04-23T18:14:18.195Z,48.57
2017-04-23T18:14:58.938Z,48.86
2017-04-23T18:15:39.747Z,49.05
2017-04-23T18:16:20.451Z,49.53
2017-04-23T18:17:01.345Z,49.63
2017-04-23T18:17:42.161Z,49.6
2017-04-23T18:18:22.797Z,49.15
2017-04-23T18:19:03.626Z,49.15
2017-04-23T18:19:44.336Z,49.15
2017-04-23T18:20:25.110Z,49.34
2017-04-23T18:21:05.826Z,49.05
2017-04-23T18:21:46.562Z,49.15
2017-04-23T18:22:27.417Z,49.15
2017-04-23T18:23:08.175Z,49.51
2017-04-23T18:23:49.018Z,49.24